sensor_id;sensor_type;location;lat;lon;timestamp;P1;durP1;ratioP1;P2;durP2;ratioP2
21258;SDS011;10787;53.364;-1.480;2023-04-28T00:00:01;34.20;;;21.20;;
21258;SDS011;10787;53.364;-1.480;2023-04-28T00:02:48;35.57;;;22.97;;
21258;SDS011;10787;53.364;-1.480;2023-04-28T00:05:33;34.47;;;22.00;;
21258;SDS011;10787;53.364;-1.480;2023-04-28T00:08:17;33.17;;;21.70;;
21258;SDS011;10787;53.364;-1.480;2023-04-28T00:11:07;31.63;;;21.00;;
21258;SDS011;10787;53.364;-1.480;2023-04-28T00:13:53;40.67;;;24.80;;
21258;SDS011;10787;53.364;-1.480;2023-04-28T00:16:37;36.63;;;22.80;;
21258;SDS011;10787;53.364;-1.480;2023-04-28T00:19:21;31.80;;;20.83;;
21258;SDS011;10787;53.364;-1.480;2023-04-28T00:22:05;34.37;;;21.23;;
21258;SDS011;10787;53.364;-1.480;2023-04-28T00:24:49;32.93;;;20.77;;
21258;SDS011;10787;53.364;-1.480;2023-04-28T00:27:33;34.07;;;21.23;;
21258;SDS011;10787;53.364;-1.480;2023-04-28T00:30:18;32.77;;;20.87;;
21258;SDS011;10787;53.364;-1.480;2023-04-28T00:33:03;31.20;;;20.30;;
21258;SDS011;10787;53.364;-1.480;2023-04-28T00:35:47;30.23;;;19.63;;
21258;SDS011;10787;53.364;-1.480;2023-04-28T00:38:31;30.20;;;19.43;;
21258;SDS011;10787;53.364;-1.480;2023-04-28T00:41:16;30.33;;;19.93;;
21258;SDS011;10787;53.364;-1.480;2023-04-28T00:44:00;30.00;;;18.83;;
21258;SDS011;10787;53.364;-1.480;2023-04-28T00:46:45;26.10;;;18.27;;
21258;SDS011;10787;53.364;-1.480;2023-04-28T00:49:30;28.07;;;18.73;;
21258;SDS011;10787;53.364;-1.480;2023-04-28T00:52:16;28.90;;;19.07;;
21258;SDS011;10787;53.364;-1.480;2023-04-28T00:55:01;28.87;;;18.57;;
21258;SDS011;10787;53.364;-1.480;2023-04-28T00:57:46;28.93;;;18.97;;
21258;SDS011;10787;53.364;-1.480;2023-04-28T01:00:30;28.30;;;18.93;;
21258;SDS011;10787;53.364;-1.480;2023-04-28T01:03:15;29.40;;;20.37;;
21258;SDS011;10787;53.364;-1.480;2023-04-28T01:06:00;28.90;;;18.97;;
21258;SDS011;10787;53.364;-1.480;2023-04-28T01:08:46;25.50;;;17.80;;
21258;SDS011;10787;53.364;-1.480;2023-04-28T01:11:31;27.40;;;18.57;;
21258;SDS011;10787;53.364;-1.480;2023-04-28T01:14:16;27.33;;;18.40;;
21258;SDS011;10787;53.364;-1.480;2023-04-28T01:17:00;28.73;;;19.07;;
21258;SDS011;10787;53.364;-1.480;2023-04-28T01:19:45;29.03;;;19.23;;
21258;SDS011;10787;53.364;-1.480;2023-04-28T01:22:29;29.30;;;19.40;;
21258;SDS011;10787;53.364;-1.480;2023-04-28T01:25:14;28.40;;;18.57;;
21258;SDS011;10787;53.364;-1.480;2023-04-28T01:27:58;29.27;;;19.53;;
21258;SDS011;10787;53.364;-1.480;2023-04-28T01:30:42;29.97;;;19.60;;
21258;SDS011;10787;53.364;-1.480;2023-04-28T01:33:27;29.00;;;19.20;;
21258;SDS011;10787;53.364;-1.480;2023-04-28T01:36:11;30.73;;;20.10;;
21258;SDS011;10787;53.364;-1.480;2023-04-28T01:38:56;29.40;;;19.13;;
21258;SDS011;10787;53.364;-1.480;2023-04-28T01:41:41;29.47;;;19.63;;
21258;SDS011;10787;53.364;-1.480;2023-04-28T01:44:25;27.93;;;18.60;;
21258;SDS011;10787;53.364;-1.480;2023-04-28T01:47:10;27.23;;;18.67;;
21258;SDS011;10787;53.364;-1.480;2023-04-28T01:49:54;29.23;;;19.10;;
21258;SDS011;10787;53.364;-1.480;2023-04-28T01:52:39;29.17;;;19.27;;
21258;SDS011;10787;53.364;-1.480;2023-04-28T01:55:23;28.13;;;18.63;;
21258;SDS011;10787;53.364;-1.480;2023-04-28T01:58:07;30.57;;;19.20;;
21258;SDS011;10787;53.364;-1.480;2023-04-28T02:00:51;30.67;;;19.90;;
21258;SDS011;10787;53.364;-1.480;2023-04-28T02:03:35;28.13;;;18.37;;
21258;SDS011;10787;53.364;-1.480;2023-04-28T02:06:20;26.87;;;18.63;;
21258;SDS011;10787;53.364;-1.480;2023-04-28T02:09:04;26.53;;;18.03;;
21258;SDS011;10787;53.364;-1.480;2023-04-28T02:11:48;27.87;;;18.93;;
21258;SDS011;10787;53.364;-1.480;2023-04-28T02:14:33;26.70;;;18.00;;
21258;SDS011;10787;53.364;-1.480;2023-04-28T02:17:18;28.67;;;19.07;;
21258;SDS011;10787;53.364;-1.480;2023-04-28T02:20:02;28.23;;;19.00;;
21258;SDS011;10787;53.364;-1.480;2023-04-28T02:22:47;28.73;;;18.40;;
21258;SDS011;10787;53.364;-1.480;2023-04-28T02:25:32;30.33;;;18.80;;
21258;SDS011;10787;53.364;-1.480;2023-04-28T02:28:17;28.80;;;19.90;;
21258;SDS011;10787;53.364;-1.480;2023-04-28T02:31:08;28.70;;;19.10;;
21258;SDS011;10787;53.364;-1.480;2023-04-28T02:33:54;31.67;;;21.03;;
21258;SDS011;10787;53.364;-1.480;2023-04-28T02:36:38;31.93;;;20.23;;
21258;SDS011;10787;53.364;-1.480;2023-04-28T02:39:22;29.87;;;19.33;;
21258;SDS011;10787;53.364;-1.480;2023-04-28T02:42:09;29.67;;;19.80;;
21258;SDS011;10787;53.364;-1.480;2023-04-28T02:44:53;31.23;;;20.47;;
21258;SDS011;10787;53.364;-1.480;2023-04-28T02:47:38;31.43;;;21.13;;
21258;SDS011;10787;53.364;-1.480;2023-04-28T02:50:22;30.57;;;20.27;;
21258;SDS011;10787;53.364;-1.480;2023-04-28T02:53:06;31.80;;;21.37;;
21258;SDS011;10787;53.364;-1.480;2023-04-28T02:55:50;31.77;;;20.53;;
21258;SDS011;10787;53.364;-1.480;2023-04-28T02:58:35;32.37;;;21.47;;
21258;SDS011;10787;53.364;-1.480;2023-04-28T03:01:19;31.73;;;21.37;;
21258;SDS011;10787;53.364;-1.480;2023-04-28T03:04:03;34.27;;;22.40;;
21258;SDS011;10787;53.364;-1.480;2023-04-28T03:06:47;33.43;;;21.53;;
21258;SDS011;10787;53.364;-1.480;2023-04-28T03:09:32;34.87;;;22.07;;
21258;SDS011;10787;53.364;-1.480;2023-04-28T03:12:16;33.23;;;21.80;;
21258;SDS011;10787;53.364;-1.480;2023-04-28T03:15:00;35.40;;;22.37;;
21258;SDS011;10787;53.364;-1.480;2023-04-28T03:17:44;35.83;;;21.43;;
21258;SDS011;10787;53.364;-1.480;2023-04-28T03:20:29;33.40;;;21.13;;
21258;SDS011;10787;53.364;-1.480;2023-04-28T03:23:14;35.23;;;22.03;;
21258;SDS011;10787;53.364;-1.480;2023-04-28T03:25:58;35.93;;;22.10;;
21258;SDS011;10787;53.364;-1.480;2023-04-28T03:28:43;36.17;;;22.53;;
21258;SDS011;10787;53.364;-1.480;2023-04-28T03:31:28;33.83;;;21.70;;
21258;SDS011;10787;53.364;-1.480;2023-04-28T03:34:12;37.27;;;22.80;;
21258;SDS011;10787;53.364;-1.480;2023-04-28T03:36:56;36.23;;;22.57;;
21258;SDS011;10787;53.364;-1.480;2023-04-28T03:39:41;37.63;;;22.63;;
21258;SDS011;10787;53.364;-1.480;2023-04-28T03:42:25;34.80;;;22.43;;
21258;SDS011;10787;53.364;-1.480;2023-04-28T03:45:10;36.10;;;22.20;;
21258;SDS011;10787;53.364;-1.480;2023-04-28T03:47:54;33.97;;;21.40;;
21258;SDS011;10787;53.364;-1.480;2023-04-28T03:50:38;34.20;;;21.23;;
21258;SDS011;10787;53.364;-1.480;2023-04-28T03:53:24;33.80;;;21.43;;
21258;SDS011;10787;53.364;-1.480;2023-04-28T03:56:08;36.30;;;22.07;;
21258;SDS011;10787;53.364;-1.480;2023-04-28T03:58:53;34.27;;;22.10;;
21258;SDS011;10787;53.364;-1.480;2023-04-28T04:01:37;37.67;;;22.50;;
21258;SDS011;10787;53.364;-1.480;2023-04-28T04:04:22;37.03;;;22.70;;
21258;SDS011;10787;53.364;-1.480;2023-04-28T04:07:06;39.13;;;23.37;;
21258;SDS011;10787;53.364;-1.480;2023-04-28T04:09:50;38.97;;;23.83;;
21258;SDS011;10787;53.364;-1.480;2023-04-28T04:12:34;40.73;;;23.27;;
21258;SDS011;10787;53.364;-1.480;2023-04-28T04:15:18;43.53;;;25.03;;
21258;SDS011;10787;53.364;-1.480;2023-04-28T04:18:03;40.23;;;23.83;;
21258;SDS011;10787;53.364;-1.480;2023-04-28T04:20:47;39.90;;;23.80;;
21258;SDS011;10787;53.364;-1.480;2023-04-28T04:23:33;36.90;;;22.63;;
21258;SDS011;10787;53.364;-1.480;2023-04-28T04:26:16;37.20;;;22.57;;
21258;SDS011;10787;53.364;-1.480;2023-04-28T04:29:01;36.47;;;22.20;;
21258;SDS011;10787;53.364;-1.480;2023-04-28T04:31:45;35.73;;;21.67;;
21258;SDS011;10787;53.364;-1.480;2023-04-28T04:34:30;36.87;;;21.63;;
21258;SDS011;10787;53.364;-1.480;2023-04-28T04:37:14;35.67;;;21.33;;
21258;SDS011;10787;53.364;-1.480;2023-04-28T04:39:59;33.57;;;21.40;;
21258;SDS011;10787;53.364;-1.480;2023-04-28T04:42:43;35.03;;;21.73;;
21258;SDS011;10787;53.364;-1.480;2023-04-28T04:45:29;37.77;;;23.00;;
21258;SDS011;10787;53.364;-1.480;2023-04-28T04:48:13;33.67;;;20.93;;
21258;SDS011;10787;53.364;-1.480;2023-04-28T04:50:57;31.60;;;19.57;;
21258;SDS011;10787;53.364;-1.480;2023-04-28T04:53:42;32.67;;;20.17;;
21258;SDS011;10787;53.364;-1.480;2023-04-28T04:56:26;34.23;;;19.63;;
21258;SDS011;10787;53.364;-1.480;2023-04-28T04:59:11;35.10;;;19.67;;
21258;SDS011;10787;53.364;-1.480;2023-04-28T05:01:55;33.73;;;20.47;;
21258;SDS011;10787;53.364;-1.480;2023-04-28T05:04:39;35.70;;;20.90;;
21258;SDS011;10787;53.364;-1.480;2023-04-28T05:07:24;33.27;;;20.57;;
21258;SDS011;10787;53.364;-1.480;2023-04-28T05:10:09;35.10;;;21.13;;
21258;SDS011;10787;53.364;-1.480;2023-04-28T05:12:56;35.27;;;21.37;;
21258;SDS011;10787;53.364;-1.480;2023-04-28T05:15:40;33.77;;;20.10;;
21258;SDS011;10787;53.364;-1.480;2023-04-28T05:18:24;35.17;;;20.37;;
21258;SDS011;10787;53.364;-1.480;2023-04-28T05:21:09;35.30;;;21.40;;
21258;SDS011;10787;53.364;-1.480;2023-04-28T05:23:54;37.20;;;22.23;;
21258;SDS011;10787;53.364;-1.480;2023-04-28T05:26:39;36.60;;;21.87;;
21258;SDS011;10787;53.364;-1.480;2023-04-28T05:29:23;34.80;;;20.57;;
21258;SDS011;10787;53.364;-1.480;2023-04-28T05:32:07;37.73;;;21.37;;
21258;SDS011;10787;53.364;-1.480;2023-04-28T05:34:51;33.53;;;19.70;;
21258;SDS011;10787;53.364;-1.480;2023-04-28T05:37:35;38.53;;;20.87;;
21258;SDS011;10787;53.364;-1.480;2023-04-28T05:40:20;34.47;;;21.20;;
21258;SDS011;10787;53.364;-1.480;2023-04-28T05:43:05;33.57;;;19.93;;
21258;SDS011;10787;53.364;-1.480;2023-04-28T05:45:49;34.83;;;20.33;;
21258;SDS011;10787;53.364;-1.480;2023-04-28T05:48:34;35.03;;;19.40;;
21258;SDS011;10787;53.364;-1.480;2023-04-28T05:51:18;35.23;;;20.17;;
21258;SDS011;10787;53.364;-1.480;2023-04-28T05:54:03;36.43;;;19.93;;
21258;SDS011;10787;53.364;-1.480;2023-04-28T05:56:47;33.33;;;19.17;;
21258;SDS011;10787;53.364;-1.480;2023-04-28T05:59:31;33.87;;;18.13;;
21258;SDS011;10787;53.364;-1.480;2023-04-28T06:02:16;37.13;;;20.53;;
21258;SDS011;10787;53.364;-1.480;2023-04-28T06:05:00;40.83;;;21.13;;
21258;SDS011;10787;53.364;-1.480;2023-04-28T06:07:44;36.17;;;20.73;;
21258;SDS011;10787;53.364;-1.480;2023-04-28T06:10:29;37.10;;;21.57;;
21258;SDS011;10787;53.364;-1.480;2023-04-28T06:13:14;32.20;;;20.17;;
21258;SDS011;10787;53.364;-1.480;2023-04-28T06:15:58;43.00;;;23.60;;
21258;SDS011;10787;53.364;-1.480;2023-04-28T06:18:42;41.57;;;23.20;;
21258;SDS011;10787;53.364;-1.480;2023-04-28T06:21:27;43.47;;;24.57;;
21258;SDS011;10787;53.364;-1.480;2023-04-28T06:24:11;45.03;;;24.10;;
21258;SDS011;10787;53.364;-1.480;2023-04-28T06:26:56;41.17;;;23.47;;
21258;SDS011;10787;53.364;-1.480;2023-04-28T06:29:40;44.00;;;22.60;;
21258;SDS011;10787;53.364;-1.480;2023-04-28T06:32:24;45.13;;;23.07;;
21258;SDS011;10787;53.364;-1.480;2023-04-28T06:35:09;41.87;;;23.00;;
21258;SDS011;10787;53.364;-1.480;2023-04-28T06:37:53;43.40;;;22.83;;
21258;SDS011;10787;53.364;-1.480;2023-04-28T06:40:38;42.47;;;22.23;;
21258;SDS011;10787;53.364;-1.480;2023-04-28T06:43:23;41.43;;;22.23;;
21258;SDS011;10787;53.364;-1.480;2023-04-28T06:46:07;40.60;;;22.37;;
21258;SDS011;10787;53.364;-1.480;2023-04-28T06:48:53;46.67;;;21.77;;
21258;SDS011;10787;53.364;-1.480;2023-04-28T06:51:38;41.37;;;20.73;;
21258;SDS011;10787;53.364;-1.480;2023-04-28T06:54:23;40.27;;;20.83;;
21258;SDS011;10787;53.364;-1.480;2023-04-28T06:57:07;39.30;;;19.63;;
21258;SDS011;10787;53.364;-1.480;2023-04-28T06:59:51;41.57;;;19.87;;
21258;SDS011;10787;53.364;-1.480;2023-04-28T07:02:36;43.00;;;19.87;;
21258;SDS011;10787;53.364;-1.480;2023-04-28T07:05:20;39.43;;;20.17;;
21258;SDS011;10787;53.364;-1.480;2023-04-28T07:08:05;41.80;;;19.67;;
21258;SDS011;10787;53.364;-1.480;2023-04-28T07:10:49;44.30;;;21.93;;
21258;SDS011;10787;53.364;-1.480;2023-04-28T07:13:33;36.13;;;19.27;;
21258;SDS011;10787;53.364;-1.480;2023-04-28T07:16:18;39.07;;;20.17;;
21258;SDS011;10787;53.364;-1.480;2023-04-28T07:19:03;40.50;;;20.27;;
21258;SDS011;10787;53.364;-1.480;2023-04-28T07:21:48;36.20;;;20.47;;
21258;SDS011;10787;53.364;-1.480;2023-04-28T07:24:32;31.20;;;18.10;;
21258;SDS011;10787;53.364;-1.480;2023-04-28T07:27:17;32.73;;;18.33;;
21258;SDS011;10787;53.364;-1.480;2023-04-28T07:30:01;33.07;;;17.93;;
21258;SDS011;10787;53.364;-1.480;2023-04-28T07:32:46;29.20;;;17.03;;
21258;SDS011;10787;53.364;-1.480;2023-04-28T07:35:31;27.90;;;16.83;;
21258;SDS011;10787;53.364;-1.480;2023-04-28T07:38:15;26.90;;;16.40;;
21258;SDS011;10787;53.364;-1.480;2023-04-28T07:41:04;25.83;;;16.17;;
21258;SDS011;10787;53.364;-1.480;2023-04-28T07:43:48;23.80;;;14.90;;
21258;SDS011;10787;53.364;-1.480;2023-04-28T07:46:33;22.83;;;14.30;;
21258;SDS011;10787;53.364;-1.480;2023-04-28T07:49:17;21.70;;;13.20;;
21258;SDS011;10787;53.364;-1.480;2023-04-28T07:52:01;22.47;;;14.33;;
21258;SDS011;10787;53.364;-1.480;2023-04-28T07:54:46;23.63;;;14.50;;
21258;SDS011;10787;53.364;-1.480;2023-04-28T07:57:31;24.77;;;14.50;;
21258;SDS011;10787;53.364;-1.480;2023-04-28T08:00:15;24.33;;;14.77;;
21258;SDS011;10787;53.364;-1.480;2023-04-28T08:03:00;22.53;;;13.97;;
21258;SDS011;10787;53.364;-1.480;2023-04-28T08:05:45;27.53;;;15.17;;
21258;SDS011;10787;53.364;-1.480;2023-04-28T08:08:29;26.47;;;15.63;;
21258;SDS011;10787;53.364;-1.480;2023-04-28T08:11:14;25.57;;;14.90;;
21258;SDS011;10787;53.364;-1.480;2023-04-28T08:13:59;24.37;;;14.83;;
21258;SDS011;10787;53.364;-1.480;2023-04-28T08:16:45;23.17;;;14.03;;
21258;SDS011;10787;53.364;-1.480;2023-04-28T08:19:31;24.50;;;15.13;;
21258;SDS011;10787;53.364;-1.480;2023-04-28T08:22:15;25.87;;;15.00;;
21258;SDS011;10787;53.364;-1.480;2023-04-28T08:25:00;23.70;;;14.70;;
21258;SDS011;10787;53.364;-1.480;2023-04-28T08:27:45;24.70;;;15.03;;
21258;SDS011;10787;53.364;-1.480;2023-04-28T08:30:29;23.93;;;14.33;;
21258;SDS011;10787;53.364;-1.480;2023-04-28T08:33:14;23.37;;;14.10;;
21258;SDS011;10787;53.364;-1.480;2023-04-28T08:35:58;23.83;;;14.67;;
21258;SDS011;10787;53.364;-1.480;2023-04-28T08:38:43;22.93;;;14.17;;
21258;SDS011;10787;53.364;-1.480;2023-04-28T08:41:30;24.73;;;14.77;;
21258;SDS011;10787;53.364;-1.480;2023-04-28T08:44:16;25.37;;;15.13;;
21258;SDS011;10787;53.364;-1.480;2023-04-28T08:47:00;25.77;;;15.30;;
21258;SDS011;10787;53.364;-1.480;2023-04-28T08:49:47;23.97;;;14.30;;
21258;SDS011;10787;53.364;-1.480;2023-04-28T08:52:32;23.00;;;14.17;;
21258;SDS011;10787;53.364;-1.480;2023-04-28T08:55:17;22.23;;;13.70;;
21258;SDS011;10787;53.364;-1.480;2023-04-28T08:58:02;20.93;;;13.57;;
21258;SDS011;10787;53.364;-1.480;2023-04-28T09:00:47;22.57;;;13.83;;
21258;SDS011;10787;53.364;-1.480;2023-04-28T09:03:32;20.80;;;13.60;;
21258;SDS011;10787;53.364;-1.480;2023-04-28T09:06:16;22.40;;;13.50;;
21258;SDS011;10787;53.364;-1.480;2023-04-28T09:12:22;19.77;;;12.63;;
21258;SDS011;10787;53.364;-1.480;2023-04-28T09:15:30;21.03;;;12.73;;
21258;SDS011;10787;53.364;-1.480;2023-04-28T09:18:17;20.20;;;12.50;;
21258;SDS011;10787;53.364;-1.480;2023-04-28T09:21:02;18.90;;;12.10;;
21258;SDS011;10787;53.364;-1.480;2023-04-28T09:23:50;19.60;;;12.00;;
21258;SDS011;10787;53.364;-1.480;2023-04-28T09:26:47;17.73;;;11.90;;
21258;SDS011;10787;53.364;-1.480;2023-04-28T09:29:33;19.73;;;12.47;;
21258;SDS011;10787;53.364;-1.480;2023-04-28T09:32:18;17.60;;;11.57;;
21258;SDS011;10787;53.364;-1.480;2023-04-28T09:35:04;15.67;;;11.23;;
21258;SDS011;10787;53.364;-1.480;2023-04-28T09:37:56;14.30;;;10.30;;
21258;SDS011;10787;53.364;-1.480;2023-04-28T09:43:42;14.70;;;10.50;;
21258;SDS011;10787;53.364;-1.480;2023-04-28T09:46:29;17.20;;;11.67;;
21258;SDS011;10787;53.364;-1.480;2023-04-28T09:49:13;14.93;;;10.80;;
21258;SDS011;10787;53.364;-1.480;2023-04-28T09:52:10;16.95;;;11.07;;
21258;SDS011;10787;53.364;-1.480;2023-04-28T09:54:56;16.83;;;11.37;;
21258;SDS011;10787;53.364;-1.480;2023-04-28T09:57:41;17.30;;;12.18;;
21258;SDS011;10787;53.364;-1.480;2023-04-28T10:00:28;17.38;;;11.63;;
21258;SDS011;10787;53.364;-1.480;2023-04-28T10:03:16;17.20;;;12.02;;
21258;SDS011;10787;53.364;-1.480;2023-04-28T10:06:09;16.88;;;12.07;;
21258;SDS011;10787;53.364;-1.480;2023-04-28T10:08:54;14.85;;;11.38;;
21258;SDS011;10787;53.364;-1.480;2023-04-28T10:11:41;15.13;;;11.52;;
21258;SDS011;10787;53.364;-1.480;2023-04-28T10:14:26;15.13;;;11.43;;
21258;SDS011;10787;53.364;-1.480;2023-04-28T10:17:12;15.55;;;11.13;;
21258;SDS011;10787;53.364;-1.480;2023-04-28T10:19:57;16.23;;;10.90;;
21258;SDS011;10787;53.364;-1.480;2023-04-28T10:25:47;16.35;;;11.52;;
21258;SDS011;10787;53.364;-1.480;2023-04-28T10:28:32;14.45;;;10.95;;
21258;SDS011;10787;53.364;-1.480;2023-04-28T10:31:18;13.70;;;10.50;;
21258;SDS011;10787;53.364;-1.480;2023-04-28T10:34:21;13.50;;;11.05;;
21258;SDS011;10787;53.364;-1.480;2023-04-28T10:37:06;14.82;;;11.43;;
21258;SDS011;10787;53.364;-1.480;2023-04-28T10:46:14;15.65;;;11.68;;
21258;SDS011;10787;53.364;-1.480;2023-04-28T10:48:59;16.15;;;12.13;;
21258;SDS011;10787;53.364;-1.480;2023-04-28T10:51:44;18.13;;;12.60;;
21258;SDS011;10787;53.364;-1.480;2023-04-28T10:54:28;15.45;;;12.25;;
21258;SDS011;10787;53.364;-1.480;2023-04-28T10:57:13;15.32;;;11.20;;
21258;SDS011;10787;53.364;-1.480;2023-04-28T11:00:25;16.50;;;12.32;;
21258;SDS011;10787;53.364;-1.480;2023-04-28T11:07:07;14.90;;;11.73;;
21258;SDS011;10787;53.364;-1.480;2023-04-28T11:09:53;14.52;;;11.65;;
21258;SDS011;10787;53.364;-1.480;2023-04-28T11:12:55;15.63;;;12.40;;
21258;SDS011;10787;53.364;-1.480;2023-04-28T11:16:03;16.75;;;11.45;;
21258;SDS011;10787;53.364;-1.480;2023-04-28T11:21:39;13.93;;;11.27;;
21258;SDS011;10787;53.364;-1.480;2023-04-28T11:24:24;12.55;;;10.52;;
21258;SDS011;10787;53.364;-1.480;2023-04-28T11:27:11;11.73;;;9.73;;
21258;SDS011;10787;53.364;-1.480;2023-04-28T11:30:22;12.70;;;9.73;;
21258;SDS011;10787;53.364;-1.480;2023-04-28T11:33:07;9.98;;;8.77;;
21258;SDS011;10787;53.364;-1.480;2023-04-28T11:35:52;11.20;;;9.05;;
21258;SDS011;10787;53.364;-1.480;2023-04-28T11:38:43;12.25;;;9.52;;
21258;SDS011;10787;53.364;-1.480;2023-04-28T11:41:27;12.50;;;10.50;;
21258;SDS011;10787;53.364;-1.480;2023-04-28T11:44:13;14.35;;;11.00;;
21258;SDS011;10787;53.364;-1.480;2023-04-28T11:46:58;12.70;;;10.73;;
21258;SDS011;10787;53.364;-1.480;2023-04-28T11:49:44;13.05;;;10.75;;
21258;SDS011;10787;53.364;-1.480;2023-04-28T11:52:29;13.55;;;10.15;;
21258;SDS011;10787;53.364;-1.480;2023-04-28T11:55:15;12.45;;;10.23;;
21258;SDS011;10787;53.364;-1.480;2023-04-28T12:01:05;10.68;;;9.25;;
21258;SDS011;10787;53.364;-1.480;2023-04-28T12:03:50;9.27;;;8.07;;
21258;SDS011;10787;53.364;-1.480;2023-04-28T12:06:34;9.48;;;7.90;;
21258;SDS011;10787;53.364;-1.480;2023-04-28T12:09:18;7.75;;;6.55;;
21258;SDS011;10787;53.364;-1.480;2023-04-28T12:12:12;8.75;;;6.40;;
21258;SDS011;10787;53.364;-1.480;2023-04-28T12:14:59;7.50;;;6.22;;
21258;SDS011;10787;53.364;-1.480;2023-04-28T12:17:45;8.07;;;6.13;;
21258;SDS011;10787;53.364;-1.480;2023-04-28T12:20:33;8.57;;;6.80;;
21258;SDS011;10787;53.364;-1.480;2023-04-28T12:23:32;7.22;;;6.25;;
21258;SDS011;10787;53.364;-1.480;2023-04-28T12:26:23;8.73;;;6.22;;
21258;SDS011;10787;53.364;-1.480;2023-04-28T12:29:08;7.57;;;5.47;;
21258;SDS011;10787;53.364;-1.480;2023-04-28T12:31:53;7.05;;;5.65;;
21258;SDS011;10787;53.364;-1.480;2023-04-28T12:34:38;10.25;;;5.57;;
21258;SDS011;10787;53.364;-1.480;2023-04-28T12:37:24;6.97;;;5.53;;
21258;SDS011;10787;53.364;-1.480;2023-04-28T12:40:09;6.38;;;5.32;;
21258;SDS011;10787;53.364;-1.480;2023-04-28T12:42:53;6.57;;;5.07;;
21258;SDS011;10787;53.364;-1.480;2023-04-28T12:45:39;7.73;;;5.77;;
21258;SDS011;10787;53.364;-1.480;2023-04-28T12:48:23;7.63;;;5.40;;
21258;SDS011;10787;53.364;-1.480;2023-04-28T12:51:08;7.00;;;5.50;;
21258;SDS011;10787;53.364;-1.480;2023-04-28T12:53:53;6.90;;;5.60;;
21258;SDS011;10787;53.364;-1.480;2023-04-28T12:56:37;8.37;;;5.77;;
21258;SDS011;10787;53.364;-1.480;2023-04-28T12:59:21;8.43;;;6.60;;
21258;SDS011;10787;53.364;-1.480;2023-04-28T13:02:06;9.30;;;6.47;;
21258;SDS011;10787;53.364;-1.480;2023-04-28T13:04:51;8.50;;;6.60;;
21258;SDS011;10787;53.364;-1.480;2023-04-28T13:07:35;11.07;;;7.23;;
21258;SDS011;10787;53.364;-1.480;2023-04-28T13:10:19;8.83;;;7.23;;
21258;SDS011;10787;53.364;-1.480;2023-04-28T13:13:05;8.40;;;6.73;;
21258;SDS011;10787;53.364;-1.480;2023-04-28T13:15:50;9.10;;;7.03;;
21258;SDS011;10787;53.364;-1.480;2023-04-28T13:18:34;9.07;;;6.63;;
21258;SDS011;10787;53.364;-1.480;2023-04-28T13:21:18;8.33;;;6.90;;
21258;SDS011;10787;53.364;-1.480;2023-04-28T13:24:03;8.27;;;6.80;;
21258;SDS011;10787;53.364;-1.480;2023-04-28T13:26:48;8.03;;;6.30;;
21258;SDS011;10787;53.364;-1.480;2023-04-28T13:29:32;8.53;;;7.17;;
21258;SDS011;10787;53.364;-1.480;2023-04-28T13:32:16;11.10;;;8.77;;
21258;SDS011;10787;53.364;-1.480;2023-04-28T13:35:00;10.50;;;7.23;;
21258;SDS011;10787;53.364;-1.480;2023-04-28T13:37:45;7.90;;;6.37;;
21258;SDS011;10787;53.364;-1.480;2023-04-28T13:40:29;8.38;;;6.70;;
21258;SDS011;10787;53.364;-1.480;2023-04-28T13:43:14;8.38;;;6.82;;
21258;SDS011;10787;53.364;-1.480;2023-04-28T13:45:59;9.35;;;6.72;;
21258;SDS011;10787;53.364;-1.480;2023-04-28T13:48:44;12.65;;;7.30;;
21258;SDS011;10787;53.364;-1.480;2023-04-28T13:51:28;8.77;;;7.25;;
21258;SDS011;10787;53.364;-1.480;2023-04-28T13:54:15;8.65;;;7.47;;
21258;SDS011;10787;53.364;-1.480;2023-04-28T13:56:59;9.43;;;7.03;;
21258;SDS011;10787;53.364;-1.480;2023-04-28T13:59:43;9.32;;;7.40;;
21258;SDS011;10787;53.364;-1.480;2023-04-28T14:02:28;9.52;;;7.55;;
21258;SDS011;10787;53.364;-1.480;2023-04-28T14:05:13;9.02;;;7.32;;
21258;SDS011;10787;53.364;-1.480;2023-04-28T14:07:59;8.95;;;6.50;;
21258;SDS011;10787;53.364;-1.480;2023-04-28T14:10:46;7.85;;;6.57;;
21258;SDS011;10787;53.364;-1.480;2023-04-28T14:13:31;7.80;;;6.90;;
21258;SDS011;10787;53.364;-1.480;2023-04-28T14:16:16;7.63;;;6.00;;
21258;SDS011;10787;53.364;-1.480;2023-04-28T14:19:00;6.95;;;6.03;;
21258;SDS011;10787;53.364;-1.480;2023-04-28T14:21:44;8.32;;;6.00;;
21258;SDS011;10787;53.364;-1.480;2023-04-28T14:24:28;6.80;;;5.85;;
21258;SDS011;10787;53.364;-1.480;2023-04-28T14:27:12;9.27;;;5.95;;
21258;SDS011;10787;53.364;-1.480;2023-04-28T14:29:58;7.50;;;6.13;;
21258;SDS011;10787;53.364;-1.480;2023-04-28T14:32:43;6.40;;;5.70;;
21258;SDS011;10787;53.364;-1.480;2023-04-28T14:35:27;6.15;;;5.47;;
21258;SDS011;10787;53.364;-1.480;2023-04-28T14:38:14;7.53;;;6.18;;
21258;SDS011;10787;53.364;-1.480;2023-04-28T14:40:59;6.68;;;5.80;;
21258;SDS011;10787;53.364;-1.480;2023-04-28T14:43:43;7.00;;;6.30;;
21258;SDS011;10787;53.364;-1.480;2023-04-28T14:46:27;6.47;;;5.13;;
21258;SDS011;10787;53.364;-1.480;2023-04-28T14:49:12;6.20;;;5.30;;
21258;SDS011;10787;53.364;-1.480;2023-04-28T14:51:57;6.68;;;4.80;;
21258;SDS011;10787;53.364;-1.480;2023-04-28T14:54:43;6.00;;;5.40;;
21258;SDS011;10787;53.364;-1.480;2023-04-28T14:57:27;6.07;;;5.47;;
21258;SDS011;10787;53.364;-1.480;2023-04-28T15:00:11;7.05;;;5.00;;
21258;SDS011;10787;53.364;-1.480;2023-04-28T15:02:56;5.60;;;4.57;;
21258;SDS011;10787;53.364;-1.480;2023-04-28T15:05:41;6.35;;;5.40;;
21258;SDS011;10787;53.364;-1.480;2023-04-28T15:08:25;7.93;;;6.38;;
21258;SDS011;10787;53.364;-1.480;2023-04-28T15:11:10;7.28;;;4.70;;
21258;SDS011;10787;53.364;-1.480;2023-04-28T15:13:54;5.32;;;4.45;;
21258;SDS011;10787;53.364;-1.480;2023-04-28T15:16:40;6.43;;;4.90;;
21258;SDS011;10787;53.364;-1.480;2023-04-28T15:19:24;6.07;;;5.47;;
21258;SDS011;10787;53.364;-1.480;2023-04-28T15:22:08;7.25;;;5.25;;
21258;SDS011;10787;53.364;-1.480;2023-04-28T15:24:53;6.10;;;5.30;;
21258;SDS011;10787;53.364;-1.480;2023-04-28T15:27:52;10.65;;;8.80;;
21258;SDS011;10787;53.364;-1.480;2023-04-28T15:30:37;6.32;;;4.68;;
21258;SDS011;10787;53.364;-1.480;2023-04-28T15:33:24;5.65;;;4.35;;
21258;SDS011;10787;53.364;-1.480;2023-04-28T15:36:08;5.25;;;3.83;;
21258;SDS011;10787;53.364;-1.480;2023-04-28T15:38:53;4.22;;;3.80;;
21258;SDS011;10787;53.364;-1.480;2023-04-28T15:41:38;5.65;;;3.95;;
21258;SDS011;10787;53.364;-1.480;2023-04-28T15:44:23;6.95;;;4.15;;
21258;SDS011;10787;53.364;-1.480;2023-04-28T15:47:07;4.72;;;3.90;;
21258;SDS011;10787;53.364;-1.480;2023-04-28T15:49:51;5.38;;;4.00;;
21258;SDS011;10787;53.364;-1.480;2023-04-28T15:52:39;6.40;;;4.68;;
21258;SDS011;10787;53.364;-1.480;2023-04-28T15:55:28;5.53;;;4.32;;
21258;SDS011;10787;53.364;-1.480;2023-04-28T15:58:12;4.88;;;3.38;;
21258;SDS011;10787;53.364;-1.480;2023-04-28T16:00:57;4.28;;;3.40;;
21258;SDS011;10787;53.364;-1.480;2023-04-28T16:03:42;4.50;;;3.97;;
21258;SDS011;10787;53.364;-1.480;2023-04-28T16:06:26;4.53;;;3.83;;
21258;SDS011;10787;53.364;-1.480;2023-04-28T16:09:11;5.45;;;4.55;;
21258;SDS011;10787;53.364;-1.480;2023-04-28T16:11:55;6.72;;;4.15;;
21258;SDS011;10787;53.364;-1.480;2023-04-28T16:14:42;7.25;;;5.32;;
21258;SDS011;10787;53.364;-1.480;2023-04-28T16:17:26;7.38;;;5.22;;
21258;SDS011;10787;53.364;-1.480;2023-04-28T16:20:12;8.35;;;5.32;;
21258;SDS011;10787;53.364;-1.480;2023-04-28T16:22:56;5.80;;;5.20;;
21258;SDS011;10787;53.364;-1.480;2023-04-28T16:25:40;5.60;;;4.50;;